PAL912 VHHH-RPLL
Flight info
| Callsign | PAL912 |
|---|---|
| Flight time | 1h 34m |
| Altitude | 38000 |
| Route | DALOL DCT NOMAN A461 CAB CAB3R |
| Aircraft | A35K/H-SDE2E3GHIJ3J4J5LM1ORWXY/LB1D1 |
Departure
| Time | 2026-05-07 13:14 |
|---|---|
| Airport | Hong Kong International Airport (VHHH) |
Arrival
| Time | 2026-05-07 14:49 |
|---|---|
| Airport | Ninoy Aquino International Airport (RPLL) |
| Time | Latitude | Longitude | Altitude | Speed | Heading |
|---|---|---|---|---|---|
| 2026-05-07 12:40 | 22.30893 | 113.91914 | 42 ft | 0 kts | 251° |
| 2026-05-07 12:50 | 22.30893 | 113.91915 | 42 ft | 0 kts | 251° |
| 2026-05-07 13:04 | 22.30893 | 113.91917 | 43 ft | 1 kts | 251° |
| 2026-05-07 13:04 | 22.30895 | 113.91923 | 43 ft | 2 kts | 253° |
| 2026-05-07 13:05 | 22.30898 | 113.91941 | 40 ft | 2 kts | 268° |
| 2026-05-07 13:05 | 22.30901 | 113.91958 | 41 ft | 2 kts | 243° |
| 2026-05-07 13:05 | 22.30910 | 113.91973 | 40 ft | 2 kts | 226° |
| 2026-05-07 13:05 | 22.30923 | 113.91984 | 40 ft | 2 kts | 199° |
| 2026-05-07 13:06 | 22.30933 | 113.91986 | 41 ft | 1 kts | 169° |
| 2026-05-07 13:06 | 22.30933 | 113.91987 | 41 ft | 0 kts | 167° |
| 2026-05-07 13:06 | 22.30924 | 113.91990 | 39 ft | 3 kts | 161° |
| 2026-05-07 13:06 | 22.30898 | 113.92000 | 40 ft | 5 kts | 160° |
| 2026-05-07 13:07 | 22.30868 | 113.92012 | 43 ft | 0 kts | 160° |
| 2026-05-07 13:08 | 22.30867 | 113.92012 | 43 ft | 1 kts | 160° |
| 2026-05-07 13:08 | 22.30858 | 113.92015 | 43 ft | 3 kts | 160° |
| 2026-05-07 13:08 | 22.30825 | 113.92029 | 43 ft | 8 kts | 158° |
| 2026-05-07 13:08 | 22.30787 | 113.92085 | 43 ft | 10 kts | 102° |
| 2026-05-07 13:09 | 22.30715 | 113.92159 | 43 ft | 13 kts | 161° |
| 2026-05-07 13:09 | 22.30624 | 113.92192 | 43 ft | 14 kts | 176° |
| 2026-05-07 13:09 | 22.30572 | 113.92155 | 43 ft | 14 kts | 237° |
| 2026-05-07 13:09 | 22.30532 | 113.92051 | 43 ft | 16 kts | 252° |
| 2026-05-07 13:10 | 22.30493 | 113.91928 | 43 ft | 19 kts | 250° |
| 2026-05-07 13:10 | 22.30447 | 113.91785 | 43 ft | 21 kts | 251° |
| 2026-05-07 13:10 | 22.30397 | 113.91630 | 43 ft | 23 kts | 251° |
| 2026-05-07 13:10 | 22.30341 | 113.91457 | 43 ft | 25 kts | 250° |
| 2026-05-07 13:11 | 22.30283 | 113.91271 | 43 ft | 27 kts | 252° |
| 2026-05-07 13:11 | 22.30217 | 113.91074 | 43 ft | 28 kts | 251° |
| 2026-05-07 13:11 | 22.30151 | 113.90868 | 43 ft | 30 kts | 250° |
| 2026-05-07 13:11 | 22.30080 | 113.90649 | 43 ft | 32 kts | 251° |
| 2026-05-07 13:12 | 22.30014 | 113.90443 | 42 ft | 21 kts | 250° |
| 2026-05-07 13:12 | 22.29963 | 113.90284 | 42 ft | 23 kts | 250° |
| 2026-05-07 13:12 | 22.29906 | 113.90110 | 42 ft | 26 kts | 251° |
| 2026-05-07 13:12 | 22.29846 | 113.89923 | 42 ft | 25 kts | 250° |
| 2026-05-07 13:13 | 22.29753 | 113.89884 | 43 ft | 14 kts | 165° |
| 2026-05-07 13:13 | 22.29675 | 113.89948 | 43 ft | 14 kts | 103° |
| 2026-05-07 13:13 | 22.29689 | 113.90008 | 42 ft | 7 kts | 71° |
| 2026-05-07 13:13 | 22.29711 | 113.90075 | 42 ft | 16 kts | 71° |
| 2026-05-07 13:14 | 22.29831 | 113.90447 | 41 ft | 90 kts | 71° |
| 2026-05-07 13:14 | 22.30112 | 113.91313 | 44 ft | 153 kts | 70° |
| 2026-05-07 13:14 | 22.30505 | 113.92466 | 626 ft | 163 kts | 71° |
| 2026-05-07 13:14 | 22.30892 | 113.93619 | 1396 ft | 169 kts | 73° |
| 2026-05-07 13:15 | 22.31302 | 113.94939 | 1739 ft | 203 kts | 73° |
| 2026-05-07 13:15 | 22.31780 | 113.96481 | 1949 ft | 232 kts | 73° |
| 2026-05-07 13:15 | 22.32330 | 113.98214 | 2246 ft | 254 kts | 72° |
| 2026-05-07 13:15 | 22.32921 | 114.00051 | 2763 ft | 263 kts | 71° |
| 2026-05-07 13:16 | 22.33519 | 114.01941 | 3411 ft | 267 kts | 73° |
| 2026-05-07 13:16 | 22.33811 | 114.03923 | 4061 ft | 269 kts | 92° |
| 2026-05-07 13:16 | 22.33359 | 114.05885 | 4719 ft | 272 kts | 117° |
| 2026-05-07 13:16 | 22.32177 | 114.07478 | 5326 ft | 275 kts | 142° |
| 2026-05-07 13:17 | 22.30508 | 114.08481 | 5920 ft | 277 kts | 162° |
| 2026-05-07 13:17 | 22.28605 | 114.08818 | 6550 ft | 278 kts | 181° |
| 2026-05-07 13:17 | 22.26671 | 114.08780 | 7140 ft | 280 kts | 183° |
| 2026-05-07 13:17 | 22.24731 | 114.08726 | 7741 ft | 283 kts | 182° |
| 2026-05-07 13:18 | 22.22755 | 114.08713 | 8353 ft | 286 kts | 179° |
| 2026-05-07 13:18 | 22.20757 | 114.09105 | 8967 ft | 292 kts | 162° |
| 2026-05-07 13:18 | 22.19002 | 114.10170 | 9577 ft | 297 kts | 144° |
| 2026-05-07 13:18 | 22.17439 | 114.11643 | 10150 ft | 302 kts | 137° |
| 2026-05-07 13:19 | 22.15961 | 114.13328 | 10426 ft | 317 kts | 133° |
| 2026-05-07 13:19 | 22.14485 | 114.15173 | 10641 ft | 332 kts | 131° |
| 2026-05-07 13:19 | 22.12961 | 114.17126 | 10855 ft | 347 kts | 131° |
| 2026-05-07 13:19 | 22.11369 | 114.19145 | 11064 ft | 360 kts | 132° |
| 2026-05-07 13:20 | 22.09702 | 114.21218 | 11260 ft | 372 kts | 133° |
| 2026-05-07 13:20 | 22.07966 | 114.23337 | 11556 ft | 380 kts | 133° |
| 2026-05-07 13:20 | 22.06199 | 114.25468 | 11964 ft | 383 kts | 133° |
| 2026-05-07 13:20 | 22.04404 | 114.27618 | 12392 ft | 386 kts | 133° |
| 2026-05-07 13:21 | 22.02598 | 114.29777 | 12825 ft | 389 kts | 133° |
| 2026-05-07 13:21 | 22.00793 | 114.31934 | 13223 ft | 392 kts | 133° |
| 2026-05-07 13:21 | 21.98958 | 114.34126 | 13639 ft | 395 kts | 133° |
| 2026-05-07 13:21 | 21.97115 | 114.36329 | 14013 ft | 398 kts | 133° |
| 2026-05-07 13:22 | 21.95257 | 114.38550 | 14370 ft | 400 kts | 133° |
| 2026-05-07 13:22 | 21.93385 | 114.40788 | 14736 ft | 403 kts | 133° |
| 2026-05-07 13:22 | 21.91502 | 114.43039 | 15091 ft | 406 kts | 133° |
| 2026-05-07 13:22 | 21.89607 | 114.45303 | 15464 ft | 408 kts | 133° |
| 2026-05-07 13:23 | 21.87696 | 114.47586 | 15822 ft | 411 kts | 133° |
| 2026-05-07 13:23 | 21.85777 | 114.49876 | 16177 ft | 413 kts | 133° |
| 2026-05-07 13:23 | 21.83842 | 114.52184 | 16549 ft | 416 kts | 133° |
| 2026-05-07 13:23 | 21.81899 | 114.54501 | 16908 ft | 419 kts | 134° |
| 2026-05-07 13:24 | 21.79938 | 114.56839 | 17266 ft | 421 kts | 134° |
| 2026-05-07 13:24 | 21.77970 | 114.59183 | 17624 ft | 424 kts | 134° |
| 2026-05-07 13:24 | 21.76008 | 114.61521 | 17966 ft | 427 kts | 134° |
| 2026-05-07 13:24 | 21.74005 | 114.63904 | 18308 ft | 429 kts | 134° |
| 2026-05-07 13:25 | 21.72000 | 114.66290 | 18613 ft | 431 kts | 134° |
| 2026-05-07 13:25 | 21.69975 | 114.68699 | 18913 ft | 434 kts | 134° |
| 2026-05-07 13:25 | 21.67944 | 114.71114 | 19221 ft | 436 kts | 134° |
| 2026-05-07 13:25 | 21.65906 | 114.73536 | 19531 ft | 438 kts | 134° |
| 2026-05-07 13:26 | 21.63858 | 114.75969 | 19835 ft | 440 kts | 134° |
| 2026-05-07 13:26 | 21.61800 | 114.78412 | 20139 ft | 442 kts | 134° |
| 2026-05-07 13:26 | 21.59727 | 114.80872 | 20454 ft | 444 kts | 133° |
| 2026-05-07 13:26 | 21.57651 | 114.83335 | 20765 ft | 446 kts | 133° |
| 2026-05-07 13:27 | 21.55560 | 114.85814 | 21059 ft | 448 kts | 133° |
| 2026-05-07 13:27 | 21.53488 | 114.88269 | 21348 ft | 450 kts | 133° |
| 2026-05-07 13:27 | 21.51377 | 114.90770 | 21642 ft | 452 kts | 133° |
| 2026-05-07 13:27 | 21.49258 | 114.93279 | 21930 ft | 454 kts | 133° |
| 2026-05-07 13:28 | 21.47129 | 114.95798 | 22215 ft | 456 kts | 133° |
| 2026-05-07 13:28 | 21.44986 | 114.98333 | 22501 ft | 458 kts | 133° |
| 2026-05-07 13:28 | 21.42840 | 115.00870 | 22784 ft | 460 kts | 133° |
| 2026-05-07 13:28 | 21.40678 | 115.03424 | 23045 ft | 463 kts | 133° |
| 2026-05-07 13:29 | 21.38514 | 115.05981 | 23314 ft | 465 kts | 133° |
| 2026-05-07 13:29 | 21.36329 | 115.08560 | 23579 ft | 466 kts | 133° |
| 2026-05-07 13:29 | 21.34139 | 115.11145 | 23811 ft | 468 kts | 133° |
| 2026-05-07 13:29 | 21.31948 | 115.13729 | 24042 ft | 470 kts | 133° |
| 2026-05-07 13:30 | 21.29744 | 115.16326 | 24261 ft | 471 kts | 133° |
| 2026-05-07 13:30 | 21.27562 | 115.18898 | 24494 ft | 473 kts | 134° |
| 2026-05-07 13:30 | 21.25340 | 115.21515 | 24724 ft | 474 kts | 134° |
| 2026-05-07 13:30 | 21.23112 | 115.24137 | 24941 ft | 476 kts | 134° |
| 2026-05-07 13:31 | 21.20876 | 115.26768 | 25161 ft | 478 kts | 134° |
| 2026-05-07 13:31 | 21.18633 | 115.29406 | 25394 ft | 479 kts | 134° |
| 2026-05-07 13:31 | 21.16386 | 115.32048 | 25625 ft | 481 kts | 134° |
| 2026-05-07 13:31 | 21.14127 | 115.34702 | 25840 ft | 482 kts | 134° |
| 2026-05-07 13:32 | 21.11873 | 115.37349 | 26070 ft | 484 kts | 134° |
| 2026-05-07 13:32 | 21.09597 | 115.40021 | 26306 ft | 485 kts | 134° |
| 2026-05-07 13:32 | 21.07317 | 115.42695 | 26544 ft | 487 kts | 134° |
| 2026-05-07 13:32 | 21.05031 | 115.45375 | 26783 ft | 488 kts | 134° |
| 2026-05-07 13:33 | 21.02735 | 115.48067 | 27022 ft | 490 kts | 134° |
| 2026-05-07 13:33 | 21.00459 | 115.50732 | 27259 ft | 492 kts | 134° |
| 2026-05-07 13:33 | 20.98145 | 115.53442 | 27501 ft | 493 kts | 134° |
| 2026-05-07 13:33 | 20.95819 | 115.56164 | 27742 ft | 495 kts | 134° |
| 2026-05-07 13:34 | 20.93495 | 115.58883 | 28000 ft | 497 kts | 134° |
| 2026-05-07 13:34 | 20.91155 | 115.61618 | 28241 ft | 499 kts | 134° |
| 2026-05-07 13:35 | 20.90495 | 115.62389 | 28313 ft | 499 kts | 134° |
| 2026-05-07 13:36 | 20.87514 | 115.65872 | 28622 ft | 501 kts | 134° |
| 2026-05-07 13:36 | 20.85154 | 115.68628 | 28862 ft | 503 kts | 134° |
| 2026-05-07 13:36 | 20.82782 | 115.71396 | 29105 ft | 505 kts | 134° |
| 2026-05-07 13:36 | 20.80399 | 115.74175 | 29339 ft | 507 kts | 134° |
| 2026-05-07 13:37 | 20.78012 | 115.76959 | 29601 ft | 509 kts | 134° |
| 2026-05-07 13:37 | 20.75614 | 115.79753 | 29848 ft | 510 kts | 134° |
| 2026-05-07 13:37 | 20.73213 | 115.82549 | 30089 ft | 512 kts | 134° |
| 2026-05-07 13:37 | 20.70799 | 115.85360 | 30291 ft | 514 kts | 134° |
| 2026-05-07 13:38 | 20.68378 | 115.88177 | 30507 ft | 516 kts | 134° |
| 2026-05-07 13:38 | 20.65976 | 115.90971 | 30716 ft | 517 kts | 134° |
| 2026-05-07 13:38 | 20.63537 | 115.93806 | 30928 ft | 519 kts | 133° |
| 2026-05-07 13:38 | 20.61088 | 115.96651 | 31136 ft | 521 kts | 133° |
| 2026-05-07 13:39 | 20.58631 | 115.99505 | 31349 ft | 523 kts | 133° |
| 2026-05-07 13:39 | 20.56164 | 116.02368 | 31552 ft | 524 kts | 133° |
| 2026-05-07 13:39 | 20.53691 | 116.05236 | 31761 ft | 526 kts | 133° |
| 2026-05-07 13:39 | 20.51384 | 116.07912 | 31923 ft | 528 kts | 133° |
| 2026-05-07 13:40 | 20.48895 | 116.10796 | 32124 ft | 529 kts | 133° |
| 2026-05-07 13:40 | 20.46397 | 116.13690 | 32334 ft | 530 kts | 133° |
| 2026-05-07 13:40 | 20.43901 | 116.16579 | 32616 ft | 529 kts | 133° |
| 2026-05-07 13:40 | 20.41411 | 116.19459 | 32907 ft | 529 kts | 133° |
| 2026-05-07 13:41 | 20.38914 | 116.22347 | 33173 ft | 529 kts | 133° |
| 2026-05-07 13:41 | 20.36450 | 116.25196 | 33462 ft | 528 kts | 133° |
| 2026-05-07 13:41 | 20.33930 | 116.28107 | 33775 ft | 528 kts | 133° |
| 2026-05-07 13:41 | 20.31472 | 116.30945 | 34050 ft | 528 kts | 132° |
| 2026-05-07 13:42 | 20.28982 | 116.33818 | 34306 ft | 528 kts | 132° |
| 2026-05-07 13:42 | 20.26482 | 116.36701 | 34566 ft | 528 kts | 132° |
| 2026-05-07 13:42 | 20.23995 | 116.39568 | 34832 ft | 528 kts | 132° |
| 2026-05-07 13:42 | 20.21496 | 116.42448 | 35114 ft | 528 kts | 132° |
| 2026-05-07 13:43 | 20.19001 | 116.45320 | 35398 ft | 528 kts | 132° |
| 2026-05-07 13:43 | 20.16510 | 116.48189 | 35684 ft | 527 kts | 132° |
| 2026-05-07 13:43 | 20.14010 | 116.51065 | 35977 ft | 527 kts | 133° |
| 2026-05-07 13:43 | 20.11553 | 116.53891 | 36255 ft | 527 kts | 133° |
| 2026-05-07 13:44 | 20.09060 | 116.56756 | 36538 ft | 528 kts | 133° |
| 2026-05-07 13:44 | 20.06558 | 116.59630 | 36819 ft | 528 kts | 133° |
| 2026-05-07 13:44 | 20.04056 | 116.62503 | 36926 ft | 528 kts | 133° |
| 2026-05-07 13:45 | 19.99075 | 116.68220 | 36934 ft | 527 kts | 132° |
| 2026-05-07 13:45 | 19.94108 | 116.73968 | 36933 ft | 527 kts | 132° |
| 2026-05-07 13:46 | 19.89163 | 116.79724 | 36933 ft | 527 kts | 132° |
| 2026-05-07 13:46 | 19.84244 | 116.85436 | 36929 ft | 527 kts | 132° |
| 2026-05-07 13:47 | 19.79294 | 116.91170 | 36930 ft | 527 kts | 132° |
| 2026-05-07 13:47 | 19.74338 | 116.96902 | 36931 ft | 526 kts | 132° |
| 2026-05-07 13:48 | 19.69383 | 117.02626 | 36931 ft | 526 kts | 132° |
| 2026-05-07 13:48 | 19.64433 | 117.08341 | 36929 ft | 526 kts | 132° |
| 2026-05-07 13:49 | 19.59474 | 117.14060 | 36928 ft | 526 kts | 132° |
| 2026-05-07 13:49 | 19.54515 | 117.19774 | 36926 ft | 526 kts | 132° |
| 2026-05-07 13:50 | 19.49566 | 117.25470 | 36928 ft | 525 kts | 132° |
| 2026-05-07 13:50 | 19.44615 | 117.31163 | 36925 ft | 525 kts | 132° |
| 2026-05-07 13:51 | 19.39699 | 117.36810 | 36923 ft | 524 kts | 132° |
| 2026-05-07 13:51 | 19.34750 | 117.42490 | 36924 ft | 524 kts | 132° |
| 2026-05-07 13:52 | 19.29805 | 117.48159 | 36920 ft | 524 kts | 132° |
| 2026-05-07 13:52 | 19.24852 | 117.53833 | 36923 ft | 524 kts | 132° |
| 2026-05-07 13:53 | 19.19906 | 117.59494 | 36923 ft | 523 kts | 132° |
| 2026-05-07 13:53 | 19.14967 | 117.65141 | 36922 ft | 523 kts | 132° |
| 2026-05-07 13:54 | 19.10044 | 117.70764 | 36922 ft | 523 kts | 132° |
| 2026-05-07 13:54 | 19.05097 | 117.76409 | 36919 ft | 523 kts | 132° |
| 2026-05-07 13:55 | 19.00155 | 117.82051 | 36920 ft | 522 kts | 132° |
| 2026-05-07 13:55 | 18.95221 | 117.87670 | 36920 ft | 522 kts | 132° |
| 2026-05-07 13:56 | 18.90277 | 117.93291 | 36918 ft | 522 kts | 132° |
| 2026-05-07 13:56 | 18.85337 | 117.98904 | 36915 ft | 522 kts | 132° |
| 2026-05-07 13:57 | 18.81232 | 118.03566 | 36917 ft | 522 kts | 132° |
| 2026-05-07 13:57 | 18.76288 | 118.09177 | 36916 ft | 522 kts | 132° |
| 2026-05-07 13:58 | 18.71341 | 118.14787 | 36916 ft | 521 kts | 132° |
| 2026-05-07 13:58 | 18.66399 | 118.20385 | 36914 ft | 521 kts | 132° |
| 2026-05-07 13:59 | 18.61481 | 118.25951 | 36915 ft | 521 kts | 132° |
| 2026-05-07 13:59 | 18.56543 | 118.31535 | 36911 ft | 520 kts | 133° |
| 2026-05-07 14:00 | 18.51608 | 118.37110 | 36910 ft | 520 kts | 133° |
| 2026-05-07 14:00 | 18.46664 | 118.42690 | 36912 ft | 520 kts | 133° |
| 2026-05-07 14:01 | 18.41730 | 118.48254 | 36913 ft | 520 kts | 133° |
| 2026-05-07 14:01 | 18.36788 | 118.53821 | 36908 ft | 519 kts | 133° |
| 2026-05-07 14:02 | 18.31928 | 118.59292 | 36906 ft | 519 kts | 133° |
| 2026-05-07 14:02 | 18.26994 | 118.64841 | 36907 ft | 519 kts | 133° |
| 2026-05-07 14:03 | 18.22061 | 118.70383 | 36906 ft | 518 kts | 133° |
| 2026-05-07 14:03 | 18.17140 | 118.75908 | 36904 ft | 517 kts | 133° |
| 2026-05-07 14:04 | 18.12219 | 118.81427 | 36908 ft | 517 kts | 133° |
| 2026-05-07 14:04 | 18.07331 | 118.86905 | 36903 ft | 516 kts | 133° |
| 2026-05-07 14:05 | 18.02421 | 118.92402 | 36905 ft | 516 kts | 133° |
| 2026-05-07 14:05 | 17.97502 | 118.97908 | 36900 ft | 515 kts | 133° |
| 2026-05-07 14:06 | 17.92594 | 119.03394 | 36899 ft | 515 kts | 133° |
| 2026-05-07 14:06 | 17.87710 | 119.08844 | 36896 ft | 515 kts | 133° |
| 2026-05-07 14:07 | 17.82801 | 119.14319 | 36896 ft | 514 kts | 133° |
| 2026-05-07 14:07 | 17.77897 | 119.19785 | 37262 ft | 514 kts | 133° |
| 2026-05-07 14:07 | 17.75451 | 119.22510 | 37639 ft | 512 kts | 133° |
| 2026-05-07 14:08 | 17.73005 | 119.25233 | 37865 ft | 512 kts | 133° |
| 2026-05-07 14:08 | 17.68127 | 119.30661 | 37895 ft | 510 kts | 133° |
| 2026-05-07 14:09 | 17.63253 | 119.36079 | 37888 ft | 510 kts | 133° |
| 2026-05-07 14:09 | 17.58413 | 119.41456 | 37892 ft | 510 kts | 133° |
| 2026-05-07 14:10 | 17.53541 | 119.46863 | 37887 ft | 510 kts | 133° |
| 2026-05-07 14:10 | 17.48673 | 119.52262 | 37885 ft | 510 kts | 133° |
| 2026-05-07 14:11 | 17.43800 | 119.57661 | 37887 ft | 509 kts | 133° |
| 2026-05-07 14:11 | 17.38929 | 119.63054 | 37884 ft | 509 kts | 133° |
| 2026-05-07 14:12 | 17.34062 | 119.68439 | 37896 ft | 509 kts | 133° |
| 2026-05-07 14:12 | 17.29197 | 119.73825 | 37886 ft | 509 kts | 134° |
| 2026-05-07 14:13 | 17.24317 | 119.79209 | 37888 ft | 509 kts | 134° |
| 2026-05-07 14:13 | 17.19440 | 119.84587 | 37887 ft | 509 kts | 134° |
| 2026-05-07 14:14 | 17.14575 | 119.89950 | 37876 ft | 509 kts | 134° |
| 2026-05-07 14:14 | 17.09730 | 119.95287 | 37878 ft | 509 kts | 134° |
| 2026-05-07 14:15 | 17.04862 | 120.00646 | 37880 ft | 508 kts | 134° |
| 2026-05-07 14:15 | 16.99994 | 120.06000 | 37881 ft | 508 kts | 134° |
| 2026-05-07 14:16 | 16.95129 | 120.11346 | 37884 ft | 507 kts | 134° |
| 2026-05-07 14:16 | 16.90258 | 120.16696 | 37882 ft | 507 kts | 134° |
| 2026-05-07 14:17 | 16.85426 | 120.21998 | 37884 ft | 506 kts | 134° |
| 2026-05-07 14:17 | 16.80573 | 120.27319 | 37894 ft | 506 kts | 134° |
| 2026-05-07 14:18 | 16.75724 | 120.32631 | 37895 ft | 505 kts | 134° |
| 2026-05-07 14:18 | 16.70231 | 120.37137 | 37917 ft | 503 kts | 152° |
| 2026-05-07 14:19 | 16.64019 | 120.40533 | 37917 ft | 504 kts | 153° |
| 2026-05-07 14:19 | 16.57831 | 120.43868 | 37925 ft | 503 kts | 153° |
| 2026-05-07 14:20 | 16.51614 | 120.47211 | 37935 ft | 503 kts | 153° |
| 2026-05-07 14:20 | 16.45445 | 120.50525 | 37933 ft | 503 kts | 153° |
| 2026-05-07 14:20 | 16.42353 | 120.52185 | 37577 ft | 498 kts | 153° |
| 2026-05-07 14:21 | 16.39273 | 120.53837 | 36898 ft | 499 kts | 153° |
| 2026-05-07 14:21 | 16.36172 | 120.55500 | 36157 ft | 501 kts | 153° |
| 2026-05-07 14:21 | 16.33076 | 120.57160 | 35421 ft | 503 kts | 153° |
| 2026-05-07 14:21 | 16.29945 | 120.58838 | 34690 ft | 505 kts | 153° |
| 2026-05-07 14:22 | 16.26812 | 120.60516 | 33968 ft | 507 kts | 153° |
| 2026-05-07 14:22 | 16.23665 | 120.62201 | 33144 ft | 509 kts | 153° |
| 2026-05-07 14:22 | 16.20512 | 120.63890 | 32732 ft | 510 kts | 153° |
| 2026-05-07 14:23 | 16.14172 | 120.67282 | 32720 ft | 518 kts | 153° |
| 2026-05-07 14:23 | 16.10968 | 120.68996 | 32498 ft | 517 kts | 153° |
| 2026-05-07 14:23 | 16.07774 | 120.70704 | 31887 ft | 515 kts | 153° |
| 2026-05-07 14:23 | 16.04578 | 120.72412 | 31022 ft | 517 kts | 153° |
| 2026-05-07 14:24 | 16.01362 | 120.74130 | 30125 ft | 520 kts | 153° |
| 2026-05-07 14:24 | 15.98142 | 120.75849 | 29137 ft | 522 kts | 153° |
| 2026-05-07 14:24 | 15.94926 | 120.77565 | 28423 ft | 517 kts | 153° |
| 2026-05-07 14:24 | 15.91729 | 120.79272 | 27745 ft | 512 kts | 153° |
| 2026-05-07 14:25 | 15.88577 | 120.80953 | 27069 ft | 507 kts | 153° |
| 2026-05-07 14:25 | 15.85450 | 120.82620 | 26424 ft | 502 kts | 153° |
| 2026-05-07 14:25 | 15.82389 | 120.84252 | 25774 ft | 498 kts | 153° |
| 2026-05-07 14:25 | 15.79321 | 120.85887 | 25118 ft | 494 kts | 153° |
| 2026-05-07 14:26 | 15.76272 | 120.87509 | 24476 ft | 490 kts | 153° |
| 2026-05-07 14:26 | 15.73247 | 120.89120 | 23832 ft | 487 kts | 153° |
| 2026-05-07 14:26 | 15.70246 | 120.90719 | 23215 ft | 482 kts | 153° |
| 2026-05-07 14:26 | 15.67306 | 120.92283 | 22952 ft | 467 kts | 153° |
| 2026-05-07 14:27 | 15.64459 | 120.93798 | 22701 ft | 453 kts | 153° |
| 2026-05-07 14:27 | 15.61687 | 120.95272 | 22462 ft | 441 kts | 153° |
| 2026-05-07 14:27 | 15.59003 | 120.96699 | 22318 ft | 426 kts | 153° |
| 2026-05-07 14:27 | 15.56401 | 120.98083 | 22205 ft | 412 kts | 153° |
| 2026-05-07 14:28 | 15.53896 | 120.99414 | 22100 ft | 398 kts | 153° |
| 2026-05-07 14:28 | 15.51468 | 121.00703 | 21984 ft | 385 kts | 153° |
| 2026-05-07 14:28 | 15.49010 | 121.01689 | 21790 ft | 375 kts | 168° |
| 2026-05-07 14:28 | 15.46448 | 121.01752 | 21524 ft | 367 kts | 191° |
| 2026-05-07 14:29 | 15.44057 | 121.00979 | 20870 ft | 356 kts | 203° |
| 2026-05-07 14:29 | 15.41803 | 120.99990 | 20384 ft | 349 kts | 203° |
| 2026-05-07 14:29 | 15.39594 | 120.99051 | 20006 ft | 347 kts | 202° |
| 2026-05-07 14:29 | 15.37356 | 120.98133 | 19627 ft | 345 kts | 201° |
| 2026-05-07 14:30 | 15.35122 | 120.97236 | 19255 ft | 343 kts | 201° |
| 2026-05-07 14:30 | 15.32898 | 120.96352 | 18884 ft | 342 kts | 201° |
| 2026-05-07 14:30 | 15.30681 | 120.95475 | 18512 ft | 340 kts | 201° |
| 2026-05-07 14:30 | 15.28473 | 120.94604 | 18133 ft | 339 kts | 200° |
| 2026-05-07 14:31 | 15.26277 | 120.93739 | 17731 ft | 336 kts | 200° |
| 2026-05-07 14:31 | 15.24093 | 120.92880 | 17368 ft | 333 kts | 200° |
| 2026-05-07 14:31 | 15.21936 | 120.92032 | 17013 ft | 330 kts | 200° |
| 2026-05-07 14:31 | 15.19798 | 120.91193 | 16654 ft | 327 kts | 200° |
| 2026-05-07 14:32 | 15.17675 | 120.90360 | 16301 ft | 324 kts | 200° |
| 2026-05-07 14:32 | 15.15575 | 120.89538 | 15945 ft | 322 kts | 200° |
| 2026-05-07 14:32 | 15.13487 | 120.88720 | 15599 ft | 319 kts | 200° |
| 2026-05-07 14:32 | 15.11418 | 120.87909 | 15251 ft | 317 kts | 200° |
| 2026-05-07 14:33 | 15.09362 | 120.87104 | 14906 ft | 315 kts | 200° |
| 2026-05-07 14:33 | 15.07319 | 120.86304 | 14557 ft | 312 kts | 200° |
| 2026-05-07 14:33 | 15.05289 | 120.85509 | 14213 ft | 310 kts | 200° |
| 2026-05-07 14:33 | 15.03279 | 120.84722 | 13875 ft | 309 kts | 200° |
| 2026-05-07 14:34 | 15.01273 | 120.83938 | 13505 ft | 307 kts | 200° |
| 2026-05-07 14:34 | 14.99310 | 120.83171 | 13168 ft | 303 kts | 199° |
| 2026-05-07 14:34 | 14.97342 | 120.82424 | 12825 ft | 300 kts | 198° |
| 2026-05-07 14:34 | 14.95392 | 120.81683 | 12510 ft | 296 kts | 198° |
| 2026-05-07 14:35 | 14.93478 | 120.80953 | 12206 ft | 292 kts | 198° |
| 2026-05-07 14:35 | 14.91575 | 120.80222 | 11879 ft | 290 kts | 199° |
| 2026-05-07 14:35 | 14.89703 | 120.79492 | 11549 ft | 287 kts | 199° |
| 2026-05-07 14:35 | 14.87836 | 120.78763 | 11228 ft | 285 kts | 198° |
| 2026-05-07 14:36 | 14.86011 | 120.78051 | 10913 ft | 283 kts | 198° |
| 2026-05-07 14:36 | 14.84168 | 120.77332 | 10600 ft | 282 kts | 198° |
| 2026-05-07 14:36 | 14.82335 | 120.76617 | 10278 ft | 281 kts | 198° |
| 2026-05-07 14:36 | 14.80506 | 120.75904 | 9969 ft | 280 kts | 198° |
| 2026-05-07 14:37 | 14.78661 | 120.75187 | 9675 ft | 291 kts | 198° |
| 2026-05-07 14:37 | 14.74839 | 120.73677 | 9046 ft | 289 kts | 199° |
| 2026-05-07 14:37 | 14.72942 | 120.72914 | 8637 ft | 295 kts | 199° |
| 2026-05-07 14:38 | 14.71017 | 120.72152 | 8334 ft | 299 kts | 199° |
| 2026-05-07 14:38 | 14.69076 | 120.71386 | 8052 ft | 294 kts | 199° |
| 2026-05-07 14:38 | 14.67242 | 120.70667 | 7898 ft | 274 kts | 198° |
| 2026-05-07 14:38 | 14.65452 | 120.69991 | 7723 ft | 273 kts | 198° |
| 2026-05-07 14:39 | 14.63673 | 120.69314 | 7380 ft | 272 kts | 198° |
| 2026-05-07 14:39 | 14.61878 | 120.68905 | 7070 ft | 266 kts | 177° |
| 2026-05-07 14:39 | 14.60132 | 120.69358 | 6783 ft | 257 kts | 150° |
| 2026-05-07 14:39 | 14.58572 | 120.70253 | 6478 ft | 256 kts | 147° |
| 2026-05-07 14:40 | 14.57027 | 120.71185 | 6202 ft | 257 kts | 147° |
| 2026-05-07 14:40 | 14.55480 | 120.72108 | 5911 ft | 256 kts | 148° |
| 2026-05-07 14:40 | 14.53945 | 120.73015 | 5709 ft | 250 kts | 148° |
| 2026-05-07 14:40 | 14.52467 | 120.73884 | 5595 ft | 239 kts | 148° |
| 2026-05-07 14:41 | 14.51041 | 120.74722 | 5409 ft | 233 kts | 148° |
| 2026-05-07 14:41 | 14.49651 | 120.75543 | 5173 ft | 227 kts | 148° |
| 2026-05-07 14:41 | 14.48284 | 120.76357 | 4901 ft | 227 kts | 148° |
| 2026-05-07 14:41 | 14.46913 | 120.77169 | 4638 ft | 227 kts | 148° |
| 2026-05-07 14:42 | 14.45566 | 120.77968 | 4380 ft | 225 kts | 147° |
| 2026-05-07 14:42 | 14.44213 | 120.78771 | 4124 ft | 224 kts | 147° |
| 2026-05-07 14:42 | 14.42866 | 120.79570 | 3889 ft | 223 kts | 147° |
| 2026-05-07 14:42 | 14.41560 | 120.80407 | 3651 ft | 218 kts | 140° |
| 2026-05-07 14:43 | 14.40764 | 120.81649 | 3425 ft | 204 kts | 101° |
| 2026-05-07 14:43 | 14.40829 | 120.83041 | 3308 ft | 188 kts | 77° |
| 2026-05-07 14:43 | 14.41330 | 120.84223 | 3127 ft | 173 kts | 62° |
| 2026-05-07 14:43 | 14.41885 | 120.85238 | 2998 ft | 157 kts | 65° |
| 2026-05-07 14:44 | 14.42385 | 120.86191 | 2818 ft | 146 kts | 63° |
| 2026-05-07 14:44 | 14.42859 | 120.87083 | 2587 ft | 138 kts | 64° |
| 2026-05-07 14:44 | 14.43302 | 120.87923 | 2505 ft | 131 kts | 64° |
| 2026-05-07 14:44 | 14.43738 | 120.88748 | 2455 ft | 130 kts | 64° |
| 2026-05-07 14:45 | 14.44179 | 120.89571 | 2332 ft | 133 kts | 63° |
| 2026-05-07 14:45 | 14.44630 | 120.90404 | 2156 ft | 133 kts | 63° |
| 2026-05-07 14:45 | 14.44930 | 120.90962 | 2045 ft | 134 kts | 64° |
| 2026-05-07 14:45 | 14.45531 | 120.92085 | 1816 ft | 133 kts | 65° |
| 2026-05-07 14:46 | 14.45828 | 120.92639 | 1698 ft | 133 kts | 64° |
| 2026-05-07 14:46 | 14.46282 | 120.93476 | 1530 ft | 134 kts | 64° |
| 2026-05-07 14:46 | 14.46735 | 120.94321 | 1350 ft | 136 kts | 64° |
| 2026-05-07 14:46 | 14.47194 | 120.95175 | 1184 ft | 136 kts | 65° |
| 2026-05-07 14:47 | 14.47652 | 120.96033 | 1008 ft | 136 kts | 65° |
| 2026-05-07 14:47 | 14.48112 | 120.96885 | 832 ft | 136 kts | 62° |
| 2026-05-07 14:47 | 14.48579 | 120.97753 | 647 ft | 140 kts | 65° |
| 2026-05-07 14:47 | 14.49030 | 120.98644 | 435 ft | 140 kts | 63° |
| 2026-05-07 14:48 | 14.49520 | 120.99520 | 277 ft | 140 kts | 62° |
| 2026-05-07 14:48 | 14.50003 | 121.00391 | 109 ft | 139 kts | 62° |
| 2026-05-07 14:48 | 14.50456 | 121.01193 | 86 ft | 126 kts | 62° |
| 2026-05-07 14:48 | 14.50816 | 121.01861 | 66 ft | 76 kts | 59° |
| 2026-05-07 14:49 | 14.50956 | 121.02110 | 67 ft | 29 kts | 60° |
| 2026-05-07 14:49 | 14.51064 | 121.02247 | 69 ft | 21 kts | 38° |
| 2026-05-07 14:49 | 14.51156 | 121.02297 | 68 ft | 5 kts | 355° |
| 2026-05-07 14:49 | 14.51188 | 121.02267 | 68 ft | 8 kts | 294° |
| 2026-05-07 14:50 | 14.51170 | 121.02216 | 67 ft | 9 kts | 239° |
| 2026-05-07 14:50 | 14.51133 | 121.02152 | 65 ft | 12 kts | 239° |
| 2026-05-07 14:50 | 14.51084 | 121.02066 | 64 ft | 15 kts | 240° |
| 2026-05-07 14:50 | 14.51036 | 121.01979 | 66 ft | 12 kts | 240° |
| 2026-05-07 14:51 | 14.50990 | 121.01896 | 64 ft | 15 kts | 240° |
| 2026-05-07 14:51 | 14.50933 | 121.01794 | 66 ft | 18 kts | 240° |
| 2026-05-07 14:51 | 14.50865 | 121.01672 | 66 ft | 21 kts | 240° |
| 2026-05-07 14:51 | 14.50789 | 121.01536 | 67 ft | 23 kts | 240° |
| 2026-05-07 14:52 | 14.50705 | 121.01387 | 66 ft | 25 kts | 240° |
| 2026-05-07 14:52 | 14.50622 | 121.01236 | 67 ft | 23 kts | 240° |
| 2026-05-07 14:52 | 14.50561 | 121.01126 | 64 ft | 25 kts | 240° |
| 2026-05-07 14:52 | 14.50477 | 121.00976 | 66 ft | 23 kts | 240° |
| 2026-05-07 14:53 | 14.50476 | 121.00973 | 66 ft | 23 kts | 240° |
| 2026-05-07 14:53 | 14.50433 | 121.00888 | 64 ft | 0 kts | 257° |
| 2026-05-07 14:53 | 14.50432 | 121.00874 | 66 ft | 4 kts | 265° |
| 2026-05-07 14:54 | 14.50432 | 121.00872 | 66 ft | 4 kts | 265° |
| 2026-05-07 14:55 | 14.50443 | 121.00846 | 67 ft | 5 kts | 304° |
| 2026-05-07 14:55 | 14.50450 | 121.00839 | 65 ft | 6 kts | 315° |
| 2026-05-07 14:55 | 14.50453 | 121.00836 | 65 ft | 6 kts | 315° |
| 2026-05-07 14:56 | 14.50488 | 121.00803 | 64 ft | 8 kts | 305° |
| 2026-05-07 14:56 | 14.50497 | 121.00757 | 66 ft | 9 kts | 277° |
| 2026-05-07 14:57 | 14.50500 | 121.00739 | 68 ft | 1 kts | 278° |
| 2026-05-07 14:57 | 14.50502 | 121.00723 | 69 ft | 0 kts | 278° |
| 2026-05-07 15:06 | 14.50502 | 121.00724 | 75 ft | 0 kts | 278° |